createdAt,value
2018-02-08T00:01:25.860Z,11.90
2018-02-08T00:02:57.673Z,10.20
2018-02-08T00:04:29.489Z,9.60
2018-02-08T00:06:01.305Z,11.20
2018-02-08T00:07:33.124Z,10.60
2018-02-08T00:09:04.937Z,10.80
2018-02-08T00:10:36.853Z,10.80
2018-02-08T00:12:08.568Z,14.70
2018-02-08T00:13:40.385Z,10.10
2018-02-08T00:15:12.201Z,10.10
2018-02-08T00:16:44.116Z,10.40
2018-02-08T00:18:15.831Z,9.80
2018-02-08T00:19:47.647Z,10.00
2018-02-08T00:21:19.463Z,12.40
2018-02-08T00:22:51.280Z,11.40
2018-02-08T00:24:23.095Z,10.40
2018-02-08T00:25:54.945Z,11.00
2018-02-08T00:27:26.727Z,11.40
2018-02-08T00:28:58.947Z,11.70
2018-02-08T00:30:30.359Z,12.40
2018-02-08T00:32:02.176Z,14.20
2018-02-08T00:33:33.996Z,13.10
2018-02-08T00:35:06.008Z,12.30
2018-02-08T00:36:37.623Z,13.10
2018-02-08T00:38:09.441Z,12.20
2018-02-08T00:39:41.254Z,13.30
2018-02-08T00:41:13.071Z,16.50
2018-02-08T00:42:44.886Z,16.20
2018-02-08T00:44:16.718Z,15.30
2018-02-08T00:45:48.517Z,14.50
2018-02-08T00:47:20.534Z,13.50
2018-02-08T00:48:52.152Z,16.00
2018-02-08T00:50:23.965Z,18.90
2018-02-08T00:51:55.781Z,17.60
2018-02-08T00:53:27.799Z,15.50
2018-02-08T00:54:59.413Z,16.00
2018-02-08T00:56:31.228Z,18.50
2018-02-08T00:58:03.043Z,17.50
2018-02-08T00:59:34.859Z,17.40
2018-02-08T01:01:06.675Z,19.90
2018-02-08T01:02:38.491Z,17.50
2018-02-08T01:04:10.318Z,21.10
2018-02-08T01:05:42.424Z,22.20
2018-02-08T01:07:13.936Z,21.50
2018-02-08T01:08:45.752Z,23.90
2018-02-08T01:10:17.588Z,22.80
2018-02-08T01:11:49.407Z,26.00
2018-02-08T01:13:21.198Z,21.90
2018-02-08T01:14:53.013Z,21.70
2018-02-08T01:16:24.829Z,19.40
2018-02-08T01:17:56.745Z,19.50
2018-02-08T01:19:28.460Z,22.10
2018-02-08T01:21:00.332Z,21.70
2018-02-08T01:22:32.143Z,22.30
2018-02-08T01:24:04.007Z,28.80
2018-02-08T01:25:35.722Z,22.00
2018-02-08T01:27:07.538Z,25.00
2018-02-08T01:28:39.354Z,21.30
2018-02-08T01:30:11.371Z,24.30
2018-02-08T01:31:42.984Z,23.90
2018-02-08T01:33:14.804Z,23.50
2018-02-08T01:34:46.616Z,28.20
2018-02-08T01:36:18.581Z,30.50
2018-02-08T01:37:50.246Z,23.70
2018-02-08T01:39:22.061Z,24.70
2018-02-08T01:40:53.876Z,36.20
2018-02-08T01:42:25.792Z,26.50
2018-02-08T01:43:57.506Z,22.80
2018-02-08T01:45:29.322Z,23.30
2018-02-08T01:47:01.137Z,23.80
2018-02-08T01:48:32.953Z,24.40
2018-02-08T01:50:04.768Z,26.70
2018-02-08T01:51:36.582Z,30.10
2018-02-08T01:53:08.397Z,28.70
2018-02-08T01:54:40.212Z,25.80
2018-02-08T01:56:12.027Z,25.20
2018-02-08T01:57:43.842Z,25.80
2018-02-08T01:59:15.657Z,26.70
2018-02-08T02:00:47.571Z,26.30
2018-02-08T02:02:19.286Z,23.40
2018-02-08T02:03:51.101Z,29.80
2018-02-08T02:05:22.916Z,41.50
2018-02-08T02:06:54.731Z,39.60
2018-02-08T02:08:26.546Z,37.20
2018-02-08T02:09:58.371Z,36.40
2018-02-08T02:11:30.176Z,38.20
2018-02-08T02:13:01.990Z,46.80
2018-02-08T02:14:33.805Z,43.20
2018-02-08T02:16:05.620Z,42.70
2018-02-08T02:17:37.435Z,45.30
2018-02-08T02:19:09.451Z,42.00
2018-02-08T02:20:41.064Z,38.70
2018-02-08T02:22:12.880Z,33.80
2018-02-08T02:23:44.694Z,34.50
2018-02-08T02:25:16.659Z,34.20
2018-02-08T02:26:48.323Z,35.10
2018-02-08T02:28:20.138Z,32.60
2018-02-08T02:29:51.954Z,31.30
2018-02-08T02:31:23.767Z,29.10
2018-02-08T02:32:55.583Z,29.40
2018-02-08T02:34:27.397Z,32.10
2018-02-08T02:35:59.211Z,28.40
2018-02-08T02:37:31.128Z,27.00
2018-02-08T02:39:02.840Z,30.00
2018-02-08T02:40:34.658Z,31.60
2018-02-08T02:42:06.471Z,29.30
2018-02-08T02:43:38.290Z,28.30
2018-02-08T02:45:10.100Z,29.70
2018-02-08T02:46:41.912Z,28.20
2018-02-08T02:48:13.728Z,24.50
2018-02-08T02:49:45.643Z,28.10
2018-02-08T02:51:17.357Z,36.30
2018-02-08T02:52:49.170Z,32.00
2018-02-08T02:54:20.987Z,37.30
2018-02-08T02:55:53.051Z,41.90
2018-02-08T02:57:24.614Z,40.60
2018-02-08T02:58:56.429Z,34.20
2018-02-08T03:00:28.243Z,38.90
2018-02-08T03:02:00.107Z,40.10
2018-02-08T03:03:31.872Z,44.20
2018-02-08T03:05:03.685Z,46.80
2018-02-08T03:06:35.499Z,50.10
2018-02-08T03:08:07.314Z,43.70
2018-02-08T03:09:39.128Z,68.40
2018-02-08T03:11:10.942Z,85.10
2018-02-08T03:12:42.756Z,101.00
2018-02-08T03:14:14.671Z,90.40
2018-02-08T03:15:46.385Z,61.30
2018-02-08T03:17:18.201Z,42.80
2018-02-08T03:18:50.014Z,39.50
2018-02-08T03:20:21.928Z,41.90
2018-02-08T03:21:53.642Z,42.20
2018-02-08T03:23:25.459Z,42.60
2018-02-08T03:24:57.266Z,44.80
2018-02-08T03:26:29.079Z,47.10
2018-02-08T03:28:00.894Z,39.90
2018-02-08T03:29:32.708Z,61.00
2018-02-08T03:31:04.522Z,64.90
2018-02-08T03:32:36.588Z,63.70
2018-02-08T03:34:08.151Z,60.20
2018-02-08T03:35:39.966Z,68.90
2018-02-08T03:37:11.779Z,86.50
2018-02-08T03:38:43.594Z,85.60
2018-02-08T03:40:15.407Z,71.20
2018-02-08T03:41:47.222Z,63.30
2018-02-08T03:43:19.036Z,69.40
2018-02-08T03:44:50.851Z,69.70
2018-02-08T03:46:22.668Z,64.30
2018-02-08T03:47:54.481Z,67.30
2018-02-08T03:49:26.294Z,76.40
2018-02-08T03:50:58.309Z,64.70
2018-02-08T03:52:29.924Z,59.10
2018-02-08T03:54:01.739Z,56.50
2018-02-08T03:55:33.551Z,66.40
2018-02-08T03:57:05.366Z,59.80
2018-02-08T03:58:37.180Z,64.20
2018-02-08T04:00:08.995Z,76.50
2018-02-08T04:01:40.810Z,73.20
2018-02-08T04:03:12.622Z,77.10
2018-02-08T04:04:44.437Z,89.10
2018-02-08T04:06:16.251Z,90.50
2018-02-08T04:07:48.065Z,85.50
2018-02-08T04:09:20.131Z,84.60
2018-02-08T04:10:51.695Z,74.30
2018-02-08T04:12:23.508Z,75.20
2018-02-08T04:13:55.321Z,75.70
2018-02-08T04:15:27.135Z,83.70
2018-02-08T04:16:58.949Z,99.90
2018-02-08T04:18:30.764Z,107.10
2018-02-08T04:20:02.581Z,87.90
2018-02-08T04:21:34.493Z,99.10
2018-02-08T04:23:06.208Z,96.70
2018-02-08T04:24:38.020Z,78.80
2018-02-08T04:26:09.836Z,90.90
2018-02-08T04:27:41.752Z,90.30
2018-02-08T04:29:13.465Z,79.60
2018-02-08T04:30:45.276Z,90.80
2018-02-08T04:32:17.090Z,86.10
2018-02-08T04:33:49.155Z,77.10
2018-02-08T04:35:20.719Z,82.60
2018-02-08T04:36:52.535Z,92.80
2018-02-08T04:38:24.346Z,104.00
2018-02-08T04:39:56.161Z,135.60
2018-02-08T04:41:27.974Z,137.40
2018-02-08T04:42:59.788Z,116.00
2018-02-08T04:44:31.602Z,94.10
2018-02-08T04:46:03.667Z,119.60
2018-02-08T04:47:35.230Z,135.30
2018-02-08T04:49:07.044Z,129.60
2018-02-08T04:50:38.857Z,130.30
2018-02-08T04:52:10.773Z,102.50
2018-02-08T04:53:42.486Z,115.90
2018-02-08T04:55:14.300Z,131.50
2018-02-08T04:56:46.113Z,128.70
2018-02-08T04:58:17.928Z,117.00
2018-02-08T04:59:49.742Z,100.30
2018-02-08T05:01:21.556Z,97.60
2018-02-08T05:02:53.369Z,104.20
2018-02-08T05:04:25.534Z,114.30
2018-02-08T05:05:56.997Z,107.00
2018-02-08T05:07:28.811Z,125.30
2018-02-08T05:09:00.626Z,107.90
2018-02-08T05:10:32.588Z,108.60
2018-02-08T05:12:04.252Z,114.00
2018-02-08T05:13:36.067Z,100.70
2018-02-08T05:15:07.880Z,107.90
2018-02-08T05:16:39.694Z,112.20
2018-02-08T05:18:11.508Z,113.40
2018-02-08T05:19:43.321Z,130.00
2018-02-08T05:21:15.137Z,119.40
2018-02-08T05:22:47.052Z,122.50
2018-02-08T05:24:18.763Z,114.70
2018-02-08T05:25:50.580Z,150.40
2018-02-08T05:27:22.390Z,171.70
2018-02-08T05:28:54.454Z,125.50
2018-02-08T05:30:26.019Z,108.90
2018-02-08T05:31:57.832Z,110.80
2018-02-08T05:33:29.645Z,113.60
2018-02-08T05:35:01.458Z,134.40
2018-02-08T05:36:33.272Z,122.20
2018-02-08T05:38:05.085Z,144.10
2018-02-08T05:39:36.899Z,164.20
2018-02-08T05:41:09.064Z,140.50
2018-02-08T05:42:40.531Z,146.90
2018-02-08T05:44:12.342Z,164.40
2018-02-08T05:45:44.154Z,143.60
2018-02-08T05:47:16.118Z,164.40
2018-02-08T05:48:47.783Z,166.20
2018-02-08T05:50:19.596Z,159.80
2018-02-08T05:51:51.409Z,164.80
2018-02-08T05:53:23.323Z,162.50
2018-02-08T05:54:55.038Z,153.80
2018-02-08T05:56:26.850Z,156.30
2018-02-08T05:57:58.663Z,146.00
2018-02-08T05:59:30.577Z,135.60
2018-02-08T06:01:02.291Z,136.20
2018-02-08T06:02:34.105Z,159.70
2018-02-08T06:04:05.919Z,165.60
2018-02-08T06:05:37.983Z,181.80
2018-02-08T06:07:09.546Z,167.70
2018-02-08T06:08:41.360Z,166.10
2018-02-08T06:10:13.173Z,147.60
2018-02-08T06:11:44.990Z,142.60
2018-02-08T06:13:16.802Z,134.10
2018-02-08T06:14:48.614Z,119.40
2018-02-08T06:16:20.429Z,113.90
2018-02-08T06:17:52.492Z,103.50
2018-02-08T06:19:24.056Z,114.20
2018-02-08T06:20:55.869Z,111.40
2018-02-08T06:22:27.683Z,117.00
2018-02-08T06:23:59.596Z,122.10
2018-02-08T06:25:31.310Z,111.30
2018-02-08T06:27:03.124Z,116.70
2018-02-08T06:28:34.939Z,110.20
2018-02-08T06:30:06.756Z,113.90
2018-02-08T06:31:38.570Z,121.70
2018-02-08T06:33:10.379Z,121.70
2018-02-08T06:34:42.193Z,125.70
2018-02-08T06:36:14.307Z,127.30
2018-02-08T06:37:45.820Z,146.30
2018-02-08T06:39:17.633Z,135.70
2018-02-08T06:40:49.448Z,142.70
2018-02-08T06:42:21.260Z,136.20
2018-02-08T06:43:53.074Z,150.50
2018-02-08T06:45:24.887Z,144.60
2018-02-08T06:46:56.701Z,128.60
2018-02-08T06:48:28.514Z,148.70
2018-02-08T06:50:00.328Z,138.80
2018-02-08T06:51:32.141Z,141.40
2018-02-08T06:53:03.954Z,150.80
2018-02-08T06:54:35.968Z,139.00
2018-02-08T06:56:07.653Z,143.40
2018-02-08T06:57:39.473Z,130.20
2018-02-08T06:59:11.280Z,136.60
2018-02-08T07:00:43.172Z,138.00
2018-02-08T07:02:14.835Z,118.10
2018-02-08T07:03:46.649Z,118.40
2018-02-08T07:05:18.462Z,126.00
2018-02-08T07:06:50.276Z,107.70
2018-02-08T07:08:22.091Z,114.90
2018-02-08T07:09:53.905Z,113.60
2018-02-08T07:11:25.717Z,125.70
2018-02-08T07:12:57.779Z,137.30
2018-02-08T07:14:29.342Z,142.00
2018-02-08T07:16:01.156Z,141.70
2018-02-08T07:17:32.970Z,151.20
2018-02-08T07:19:04.782Z,146.00
2018-02-08T07:20:36.596Z,143.10
2018-02-08T07:22:08.409Z,144.60
2018-02-08T07:23:40.223Z,146.90
2018-02-08T07:25:12.036Z,133.50
2018-02-08T07:26:43.849Z,158.60
2018-02-08T07:28:15.663Z,144.70
2018-02-08T07:29:47.475Z,140.80
2018-02-08T07:31:19.541Z,139.80
2018-02-08T07:32:51.102Z,127.10
2018-02-08T07:34:22.914Z,145.00
2018-02-08T07:35:54.728Z,130.70
2018-02-08T07:37:26.541Z,131.10
2018-02-08T07:38:58.354Z,128.60
2018-02-08T07:40:30.168Z,140.10
2018-02-08T07:42:01.981Z,148.50
2018-02-08T07:43:33.944Z,154.70
2018-02-08T07:45:05.607Z,143.90
2018-02-08T07:46:37.420Z,150.50
2018-02-08T07:48:09.233Z,141.60
2018-02-08T07:49:41.147Z,153.70
2018-02-08T07:51:12.860Z,149.10
2018-02-08T07:52:44.673Z,128.80
2018-02-08T07:54:16.486Z,154.10
2018-02-08T07:55:48.400Z,178.90
2018-02-08T07:57:20.112Z,187.80
2018-02-08T07:58:51.926Z,166.20
2018-02-08T08:00:23.742Z,154.10
2018-02-08T08:01:55.553Z,134.10
2018-02-08T08:03:27.366Z,112.90
2018-02-08T08:04:59.178Z,117.70
2018-02-08T08:06:30.991Z,120.20
2018-02-08T08:08:02.905Z,132.10
2018-02-08T08:09:34.618Z,137.90
2018-02-08T08:11:06.433Z,138.00
2018-02-08T08:12:38.244Z,153.50
2018-02-08T08:14:10.057Z,160.80
2018-02-08T08:15:41.870Z,180.00
2018-02-08T08:17:13.683Z,141.70
2018-02-08T08:18:45.495Z,136.00
2018-02-08T08:20:17.309Z,133.90
2018-02-08T08:21:49.121Z,125.20
2018-02-08T08:23:20.934Z,130.90
2018-02-08T08:24:52.747Z,146.60
2018-02-08T08:26:24.760Z,143.50
2018-02-08T08:27:56.373Z,154.10
2018-02-08T08:29:28.194Z,157.50
2018-02-08T08:30:59.999Z,157.70
2018-02-08T08:32:32.063Z,142.30
2018-02-08T08:34:03.625Z,169.40
2018-02-08T08:35:35.437Z,159.90
2018-02-08T08:37:07.251Z,185.80
2018-02-08T08:38:39.214Z,174.00
2018-02-08T08:40:10.877Z,160.70
2018-02-08T08:41:42.690Z,138.50
2018-02-08T08:43:14.503Z,143.50
2018-02-08T08:44:46.416Z,154.50
2018-02-08T08:46:18.129Z,158.90
2018-02-08T08:47:49.942Z,134.40
2018-02-08T08:49:21.756Z,140.00
2018-02-08T08:50:53.569Z,129.80
2018-02-08T08:52:25.382Z,144.00
2018-02-08T08:53:57.196Z,161.40
2018-02-08T08:55:29.009Z,155.90
2018-02-08T08:57:00.924Z,158.60
2018-02-08T08:58:32.636Z,173.70
2018-02-08T09:00:04.455Z,168.60
2018-02-08T09:01:36.263Z,156.40
2018-02-08T09:03:08.176Z,169.80
2018-02-08T09:04:39.889Z,144.10
2018-02-08T09:06:11.703Z,135.00
2018-02-08T09:07:43.518Z,148.50
2018-02-08T09:09:15.330Z,147.10
2018-02-08T09:10:47.144Z,141.20
2018-02-08T09:12:18.958Z,133.50
2018-02-08T09:13:50.771Z,135.60
2018-02-08T09:15:22.586Z,153.60
2018-02-08T09:16:54.399Z,161.30
2018-02-08T09:18:26.214Z,122.40
2018-02-08T09:19:58.029Z,121.90
2018-02-08T09:21:29.943Z,124.60
2018-02-08T09:23:01.658Z,103.90
2018-02-08T09:24:33.472Z,101.30
2018-02-08T09:26:05.314Z,111.20
2018-02-08T09:27:37.112Z,101.20
2018-02-08T09:29:08.919Z,100.20
2018-02-08T09:30:40.736Z,83.10
2018-02-08T09:32:12.551Z,77.00
2018-02-08T09:33:44.367Z,80.50
2018-02-08T09:35:16.188Z,79.50
2018-02-08T09:36:48.004Z,89.40
2018-02-08T09:38:19.816Z,73.10
2018-02-08T09:39:51.884Z,72.50
2018-02-08T09:41:23.452Z,75.10
2018-02-08T09:42:55.268Z,61.60
2018-02-08T09:44:27.087Z,66.90
2018-02-08T09:45:58.903Z,59.90
2018-02-08T09:47:30.725Z,54.10
2018-02-08T09:49:02.542Z,50.00
2018-02-08T09:50:34.358Z,50.70
2018-02-08T09:52:06.182Z,50.90
2018-02-08T09:53:37.995Z,44.30
2018-02-08T09:55:09.814Z,46.70
2018-02-08T09:56:41.639Z,42.10
2018-02-08T09:58:13.704Z,44.20
2018-02-08T09:59:45.279Z,48.60
2018-02-08T10:01:17.095Z,43.90
2018-02-08T10:02:48.913Z,43.10
2018-02-08T10:04:20.734Z,41.60
2018-02-08T10:05:52.571Z,39.80
2018-02-08T10:07:24.384Z,38.40
2018-02-08T10:08:56.195Z,39.50
2018-02-08T10:10:28.116Z,36.70
2018-02-08T10:11:59.850Z,35.00
2018-02-08T10:13:31.657Z,35.10
2018-02-08T10:15:03.479Z,39.10
2018-02-08T10:16:35.401Z,41.50
2018-02-08T10:18:07.121Z,45.20
2018-02-08T10:19:38.966Z,35.40
2018-02-08T10:21:10.765Z,41.30
2018-02-08T10:22:42.589Z,40.50
2018-02-08T10:24:14.422Z,37.90
2018-02-08T10:25:46.231Z,37.50
2018-02-08T10:27:18.053Z,37.50
2018-02-08T10:28:49.975Z,39.20
2018-02-08T10:30:21.699Z,37.20
2018-02-08T10:31:53.569Z,36.80
2018-02-08T10:33:25.344Z,36.70
2018-02-08T10:34:57.416Z,39.70
2018-02-08T10:36:29.028Z,40.10
2018-02-08T10:38:00.813Z,36.90
2018-02-08T10:39:32.636Z,34.70
2018-02-08T10:41:04.519Z,33.40
2018-02-08T10:42:36.280Z,32.40
2018-02-08T10:44:08.105Z,27.10
2018-02-08T10:45:39.938Z,30.40
2018-02-08T10:47:11.800Z,29.70
2018-02-08T10:48:43.573Z,30.20
2018-02-08T10:50:15.400Z,26.50
2018-02-08T10:51:47.221Z,26.40
2018-02-08T10:53:19.143Z,24.10
2018-02-08T10:54:50.867Z,25.20
2018-02-08T10:56:22.690Z,29.40
2018-02-08T10:57:54.808Z,26.70
2018-02-08T10:59:26.438Z,28.90
2018-02-08T11:00:58.162Z,32.70
2018-02-08T11:02:29.985Z,31.70
2018-02-08T11:04:01.810Z,30.00
2018-02-08T11:05:33.634Z,40.50
2018-02-08T11:07:05.492Z,36.00
2018-02-08T11:08:37.283Z,32.40
2018-02-08T11:10:09.106Z,30.30
2018-02-08T11:11:41.183Z,28.70
2018-02-08T11:13:12.755Z,28.00
2018-02-08T11:14:44.680Z,28.10
2018-02-08T11:16:16.405Z,27.70
2018-02-08T11:17:48.378Z,28.70
2018-02-08T11:19:20.052Z,29.70
2018-02-08T11:20:51.877Z,31.80
2018-02-08T11:22:23.702Z,29.80
2018-02-08T11:23:55.626Z,29.60
2018-02-08T11:25:27.351Z,32.00
2018-02-08T11:26:59.207Z,30.50
2018-02-08T11:28:31.014Z,31.70
2018-02-08T11:30:03.026Z,29.50
2018-02-08T11:31:34.651Z,34.40
2018-02-08T11:33:06.478Z,36.60
2018-02-08T11:34:38.300Z,33.70
2018-02-08T11:36:10.244Z,34.40
2018-02-08T11:37:41.950Z,33.10
2018-02-08T11:39:13.779Z,33.10
2018-02-08T11:40:45.602Z,29.90
2018-02-08T11:42:17.427Z,26.00
2018-02-08T11:43:49.253Z,25.80
2018-02-08T11:45:21.079Z,22.50
2018-02-08T11:46:52.903Z,22.10
2018-02-08T11:48:24.829Z,22.10
2018-02-08T11:49:57.011Z,22.70
2018-02-08T11:51:28.379Z,27.50
2018-02-08T11:53:00.203Z,24.70
2018-02-08T11:54:32.030Z,18.30
2018-02-08T11:56:03.854Z,19.10
2018-02-08T11:57:35.679Z,19.90
2018-02-08T11:59:07.921Z,15.80
2018-02-08T12:00:39.332Z,15.30
2018-02-08T12:02:11.158Z,24.50
2018-02-08T12:03:42.983Z,22.20
2018-02-08T12:05:14.811Z,22.00
2018-02-08T12:06:46.886Z,21.90
2018-02-08T12:08:18.463Z,15.30
2018-02-08T12:09:50.288Z,11.80
2018-02-08T12:11:22.114Z,13.70
2018-02-08T12:12:53.943Z,13.30
2018-02-08T12:14:25.768Z,15.60
2018-02-08T12:15:57.594Z,14.10
2018-02-08T12:17:29.419Z,12.90
2018-02-08T12:19:01.245Z,11.70
2018-02-08T12:20:33.072Z,9.90
2018-02-08T12:22:04.898Z,10.90
2018-02-08T12:23:36.734Z,9.70
2018-02-08T12:25:08.651Z,9.90
2018-02-08T12:26:40.389Z,9.70
2018-02-08T12:28:12.205Z,9.10
2018-02-08T12:29:44.031Z,9.60
2018-02-08T12:31:15.880Z,10.00
2018-02-08T12:32:47.682Z,10.50
2018-02-08T12:34:19.508Z,12.20
2018-02-08T12:35:51.334Z,12.30
2018-02-08T12:37:23.312Z,12.40
2018-02-08T12:38:54.988Z,12.40
2018-02-08T12:40:26.817Z,10.60
2018-02-08T12:41:58.642Z,9.40
2018-02-08T12:43:30.569Z,10.10
2018-02-08T12:45:02.295Z,9.70
2018-02-08T12:46:34.121Z,9.80
2018-02-08T12:48:05.950Z,10.10
2018-02-08T12:49:37.781Z,8.60
2018-02-08T12:51:09.603Z,9.00
2018-02-08T12:52:41.429Z,10.10
2018-02-08T12:54:13.256Z,9.70
2018-02-08T12:55:45.084Z,8.90
2018-02-08T12:57:16.911Z,8.80
2018-02-08T12:58:48.738Z,9.40
2018-02-08T13:00:20.568Z,8.80
2018-02-08T13:01:52.600Z,9.00
2018-02-08T13:03:24.223Z,10.00
2018-02-08T13:04:56.050Z,10.60
2018-02-08T13:06:27.878Z,9.60
2018-02-08T13:07:59.707Z,8.70
2018-02-08T13:09:31.543Z,8.20
2018-02-08T13:11:03.363Z,9.20
2018-02-08T13:12:35.193Z,7.40
2018-02-08T13:14:07.020Z,8.10
2018-02-08T13:15:38.849Z,7.30
2018-02-08T13:17:10.679Z,8.50
2018-02-08T13:18:42.506Z,6.90
2018-02-08T13:20:14.435Z,7.80
2018-02-08T13:21:46.168Z,9.20
2018-02-08T13:23:17.991Z,7.90
2018-02-08T13:24:49.820Z,7.30
2018-02-08T13:26:21.649Z,8.10
2018-02-08T13:27:53.479Z,7.90
2018-02-08T13:29:25.306Z,7.80
2018-02-08T13:30:57.145Z,8.00
2018-02-08T13:32:29.078Z,6.90
2018-02-08T13:34:00.801Z,7.40
2018-02-08T13:35:32.628Z,6.40
2018-02-08T13:37:04.455Z,8.30
2018-02-08T13:38:36.484Z,7.60
2018-02-08T13:40:08.113Z,6.90
2018-02-08T13:41:39.944Z,7.30
2018-02-08T13:43:11.773Z,7.50
2018-02-08T13:44:43.716Z,8.00
2018-02-08T13:46:15.464Z,8.00
2018-02-08T13:47:47.263Z,8.40
2018-02-08T13:49:19.091Z,9.90
2018-02-08T13:50:50.925Z,8.90
2018-02-08T13:52:22.751Z,8.30
2018-02-08T13:53:54.601Z,9.40
2018-02-08T13:55:26.413Z,9.30
2018-02-08T13:56:58.443Z,8.60
2018-02-08T13:58:30.075Z,8.20
2018-02-08T14:00:01.906Z,8.20
2018-02-08T14:01:33.737Z,9.40
2018-02-08T14:03:05.670Z,8.90
2018-02-08T14:04:37.399Z,9.80
2018-02-08T14:06:09.230Z,9.30
2018-02-08T14:07:41.060Z,9.90
2018-02-08T14:09:12.892Z,9.50
2018-02-08T14:10:44.723Z,10.10
2018-02-08T14:12:16.552Z,9.70
2018-02-08T14:13:48.382Z,11.80
2018-02-08T14:15:20.213Z,10.70
2018-02-08T14:16:52.046Z,10.80
2018-02-08T14:18:23.906Z,10.90
2018-02-08T14:19:55.705Z,10.20
2018-02-08T14:21:27.534Z,10.40
2018-02-08T14:22:59.366Z,10.50
2018-02-08T14:24:31.198Z,9.70
2018-02-08T14:26:03.032Z,9.30
2018-02-08T14:27:34.862Z,9.60
2018-02-08T14:29:06.694Z,9.30
2018-02-08T14:30:38.527Z,10.50
2018-02-08T14:32:10.358Z,9.50
2018-02-08T14:33:42.292Z,10.40
2018-02-08T14:35:14.025Z,9.80
2018-02-08T14:36:45.858Z,10.50
2018-02-08T14:38:17.691Z,10.20
2018-02-08T14:39:50.904Z,9.40
2018-02-08T14:41:21.371Z,10.20
2018-02-08T14:42:53.229Z,9.10
2018-02-08T14:44:25.021Z,11.00
2018-02-08T14:45:56.855Z,10.80
2018-02-08T14:47:28.682Z,11.10
2018-02-08T15:30:16.649Z,7.60
2018-02-08T15:31:48.443Z,7.80
2018-02-08T15:33:20.273Z,7.70
2018-02-08T15:34:52.097Z,7.50
2018-02-08T15:36:23.925Z,7.60
2018-02-08T15:37:55.753Z,6.60
2018-02-08T15:39:27.580Z,7.60
2018-02-08T15:40:59.409Z,7.10
2018-02-08T15:42:31.400Z,10.40
2018-02-08T15:44:03.164Z,7.00
2018-02-08T15:45:34.900Z,7.30
2018-02-08T15:47:06.744Z,7.30
2018-02-08T15:48:38.586Z,6.70
2018-02-08T15:50:10.402Z,6.30
2018-02-08T15:51:42.226Z,6.60
2018-02-08T15:53:14.116Z,8.10
2018-02-08T15:54:45.892Z,7.40
2018-02-08T15:56:17.750Z,8.60
2018-02-08T15:57:49.557Z,8.00
2018-02-08T15:59:21.390Z,7.90
2018-02-08T16:00:53.324Z,7.80
2018-02-08T16:02:25.062Z,6.90
2018-02-08T16:03:56.882Z,7.30
2018-02-08T16:05:28.714Z,7.60
2018-02-08T16:07:00.548Z,6.30
2018-02-08T16:08:32.374Z,7.30
2018-02-08T16:10:04.206Z,8.20
2018-02-08T16:11:36.035Z,8.20
2018-02-08T16:13:08.015Z,8.20
2018-02-08T16:14:39.693Z,8.60
2018-02-08T16:16:11.521Z,7.40
2018-02-08T16:17:43.375Z,7.60
2018-02-08T16:19:15.279Z,8.90
2018-02-08T16:20:47.005Z,8.90
2018-02-08T16:22:18.832Z,10.00
2018-02-08T16:23:50.661Z,9.60
2018-02-08T16:25:22.486Z,7.40
2018-02-08T16:26:54.314Z,8.10
2018-02-08T16:28:26.178Z,7.70
2018-02-08T16:29:57.984Z,7.30
2018-02-08T16:31:29.796Z,7.40
2018-02-08T16:33:01.620Z,7.60
2018-02-08T16:34:33.446Z,7.70
2018-02-08T16:36:05.305Z,8.40
2018-02-08T16:37:37.199Z,7.60
2018-02-08T16:39:08.992Z,7.40
2018-02-08T16:40:40.895Z,8.50
2018-02-08T16:42:12.579Z,7.80
2018-02-08T16:43:44.558Z,8.20
2018-02-08T16:45:16.238Z,6.90
2018-02-08T16:46:48.065Z,9.30
2018-02-08T16:48:19.892Z,8.80
2018-02-08T16:49:51.744Z,7.30
2018-02-08T16:51:23.600Z,7.10
2018-02-08T16:52:55.376Z,7.50
2018-02-08T16:54:27.216Z,7.30
2018-02-08T16:55:59.153Z,7.50
2018-02-08T16:57:30.859Z,7.70
2018-02-08T16:59:02.687Z,7.40
2018-02-08T17:00:34.515Z,10.40
2018-02-08T17:02:06.541Z,8.30
2018-02-08T17:03:38.399Z,7.20
2018-02-08T17:05:10.072Z,6.30
2018-02-08T17:06:41.930Z,7.40
2018-02-08T17:08:13.802Z,6.60
2018-02-08T17:09:45.605Z,6.20
2018-02-08T17:11:17.337Z,6.50
2018-02-08T17:12:49.153Z,5.80
2018-02-08T17:14:21.083Z,5.40
2018-02-08T17:15:52.846Z,5.90
2018-02-08T17:17:25.005Z,5.50
2018-02-08T17:18:56.485Z,5.60
2018-02-08T17:20:28.574Z,5.80
2018-02-08T17:22:00.147Z,5.20
2018-02-08T17:23:32.191Z,6.20
2018-02-08T17:25:03.900Z,5.60
2018-02-08T17:26:36.032Z,5.90
2018-02-08T17:28:07.818Z,5.90
2018-02-08T17:29:39.314Z,6.00
2018-02-08T17:31:11.149Z,7.10
2018-02-08T17:32:43.077Z,5.70
2018-02-08T17:34:14.817Z,6.10
2018-02-08T17:35:46.934Z,5.90
2018-02-08T17:37:18.546Z,7.30
2018-02-08T17:38:50.476Z,6.10
2018-02-08T17:40:22.208Z,6.00
2018-02-08T17:41:53.967Z,5.40
2018-02-08T17:43:25.797Z,5.80
2018-02-08T17:44:57.779Z,5.70
2018-02-08T17:46:29.457Z,5.30
2018-02-08T17:48:01.283Z,5.60
2018-02-08T17:49:33.121Z,9.50
2018-02-08T17:51:05.059Z,11.00
2018-02-08T17:52:36.765Z,10.50
2018-02-08T17:54:08.590Z,10.90
2018-02-08T17:55:40.419Z,12.30
2018-02-08T17:57:12.243Z,11.50
2018-02-08T17:58:44.115Z,11.20
2018-02-08T18:00:15.894Z,11.20
2018-02-08T18:01:47.720Z,11.40
2018-02-08T18:03:19.546Z,10.30
2018-02-08T18:04:51.373Z,9.60
2018-02-08T18:06:23.199Z,10.00
2018-02-08T18:07:55.026Z,9.70
2018-02-08T18:09:27.822Z,9.80
2018-02-08T18:10:58.681Z,9.40
2018-02-08T18:12:30.520Z,9.80
2018-02-08T18:14:02.338Z,8.50
2018-02-08T18:15:34.324Z,10.90
2018-02-08T18:17:05.992Z,9.90
2018-02-08T18:18:37.820Z,10.20
2018-02-08T18:20:09.652Z,9.90
2018-02-08T18:21:41.474Z,10.50
2018-02-08T18:23:13.300Z,9.70
2018-02-08T18:24:45.126Z,9.50
2018-02-08T18:26:16.953Z,9.90
2018-02-08T18:27:48.878Z,9.80
2018-02-08T18:29:20.605Z,9.30
2018-02-08T18:30:52.432Z,8.50
2018-02-08T18:32:24.258Z,8.90
2018-02-08T18:33:56.106Z,9.10
2018-02-08T18:35:28.091Z,9.10
2018-02-08T18:36:59.764Z,8.60
2018-02-08T18:38:31.560Z,9.80
2018-02-08T18:40:03.386Z,8.90
2018-02-08T18:41:35.210Z,9.50
2018-02-08T18:43:07.036Z,9.10
2018-02-08T18:44:39.073Z,8.30
2018-02-08T18:46:10.790Z,8.80
2018-02-08T18:47:42.512Z,9.60
2018-02-08T18:49:14.361Z,8.50
2018-02-08T18:50:46.192Z,10.20
2018-02-08T18:52:17.996Z,8.10
2018-02-08T18:53:49.819Z,7.60
2018-02-08T18:55:21.797Z,8.50
2018-02-08T18:56:53.469Z,7.10
2018-02-08T18:58:25.295Z,7.90
2018-02-08T18:59:57.135Z,8.10
2018-02-08T19:01:28.949Z,7.40
2018-02-08T19:03:00.778Z,7.20
2018-02-08T19:04:32.879Z,7.10
2018-02-08T19:06:04.431Z,7.70
2018-02-08T19:07:36.298Z,9.70
2018-02-08T19:09:08.112Z,8.10
2018-02-08T19:10:40.031Z,7.40
2018-02-08T19:12:11.739Z,7.80
2018-02-08T19:13:43.566Z,7.20
2018-02-08T19:15:15.400Z,8.70
2018-02-08T19:16:47.220Z,8.00
2018-02-08T19:18:19.045Z,7.00
2018-02-08T19:19:50.872Z,7.00
2018-02-08T19:21:22.721Z,7.70
2018-02-08T19:22:54.623Z,7.40
2018-02-08T19:24:26.349Z,7.90
2018-02-08T19:25:58.200Z,7.30
2018-02-08T19:27:30.003Z,8.50
2018-02-08T19:29:01.826Z,8.70
2018-02-08T19:30:33.652Z,8.20
2018-02-08T19:32:05.478Z,8.90
2018-02-08T19:33:37.302Z,10.00
2018-02-08T19:35:09.126Z,8.60
2018-02-08T19:36:40.952Z,9.20
2018-02-08T19:38:12.778Z,9.80
2018-02-08T19:39:44.602Z,9.10
2018-02-08T19:41:16.529Z,9.10
2018-02-08T19:42:48.253Z,9.00
2018-02-08T19:44:20.080Z,8.70
2018-02-08T19:45:51.900Z,8.70
2018-02-08T19:47:23.725Z,9.00
2018-02-08T19:48:55.548Z,8.40
2018-02-08T19:50:27.430Z,9.20
2018-02-08T19:51:59.196Z,9.40
2018-02-08T19:53:31.019Z,9.30
2018-02-08T19:55:02.844Z,9.10
2018-02-08T19:56:34.665Z,8.60
2018-02-08T19:58:06.489Z,7.90
2018-02-08T19:59:38.412Z,8.30
2018-02-08T20:01:10.136Z,8.70
2018-02-08T20:02:42.014Z,10.20
2018-02-08T20:04:13.782Z,10.00
2018-02-08T20:05:45.603Z,10.70
2018-02-08T20:07:17.426Z,11.50
2018-02-08T20:08:49.249Z,11.10
2018-02-08T20:10:21.071Z,12.90
2018-02-08T20:11:52.993Z,11.80
2018-02-08T20:13:24.716Z,12.60
2018-02-08T20:14:56.539Z,11.10
2018-02-08T20:16:28.361Z,12.30
2018-02-08T20:18:00.484Z,10.50
2018-02-08T20:19:32.004Z,10.90
2018-02-08T20:21:03.856Z,10.10
2018-02-08T20:22:35.647Z,11.90
2018-02-08T20:24:07.469Z,11.10
2018-02-08T20:25:39.290Z,12.00